CDT,Max TemperatureF,Mean TemperatureF,Min TemperatureF,Max Dew PointF,MeanDew PointF,Min DewpointF,Max Humidity, Mean Humidity, Min Humidity, Max Sea Level PressureIn, Mean Sea Level PressureIn, Min Sea Level PressureIn, Max VisibilityMiles, Mean VisibilityMiles, Min VisibilityMiles, Max Wind SpeedMPH, Mean Wind SpeedMPH, Max Gust SpeedMPH,PrecipitationIn, CloudCover, Events, WindDirDegrees
2014-3-1,35,22,8,25,14,3,92,74,56,30.38,30.23,30.01,10,5,1,24,15,31,0.01,8,Rain-Snow,19
2014-3-2,8,5,1,3,-4,-13,86,69,51,30.56,30.43,30.31,10,4,0,24,16,33,0.17,7,Snow,10
2014-3-3,18,8,-3,7,-6,-13,67,52,37,30.58,30.48,30.31,10,10,10,20,7,24,0.00,0,,103
2014-3-4,41,26,11,23,13,2,73,59,45,30.29,30.14,30.03,10,10,10,15,8,20,0.00,0,,182
2014-3-5,45,36,26,28,25,22,85,65,45,30.28,30.18,30.09,10,7,2,17,6,22,T,3,Snow,30
2014-3-6,48,35,21,30,26,19,92,71,50,30.27,30.15,29.99,9,5,2,12,7,16,0.00,0,,136
2014-3-7,61,46,31,37,32,28,85,59,32,30.04,29.91,29.82,10,7,5,22,11,27,0.00,2,,180
2014-3-8,41,35,28,28,24,22,89,72,54,30.35,30.23,30.06,10,9,5,21,10,26,0.00,5,,2
2014-3-9,59,40,21,30,26,20,96,63,30,30.34,30.17,29.97,10,8,4,23,9,30,0.00,0,,213
2014-3-10,72,58,43,32,28,22,53,38,22,29.97,29.79,29.66,10,10,2,18,9,26,0.00,0,,220
2014-3-11,77,56,34,49,38,26,89,62,35,29.90,29.58,29.42,10,9,3,38,16,47,0.14,3,Rain-Snow-Thunderstorm,249
2014-3-12,53,42,31,34,26,21,92,61,30,30.21,30.11,29.95,10,10,9,22,11,29,0.01,2,Rain,334
2014-3-13,67,50,33,28,22,18,69,42,15,30.13,30.00,29.83,10,10,10,20,8,28,0.00,0,,227
2014-3-14,64,51,37,28,23,18,49,33,17,30.01,29.88,29.73,10,10,10,24,11,38,0.00,0,,281
2014-3-15,71,54,37,47,36,22,61,46,31,29.99,29.88,29.78,10,10,6,30,11,37,0.06,2,Rain-Thunderstorm,166
2014-3-16,44,35,25,45,27,16,92,68,44,30.23,30.08,29.91,10,6,1,31,17,40,0.06,6,Rain-Snow,26
2014-3-17,49,34,18,27,21,14,92,64,36,30.12,29.84,29.62,10,10,10,20,10,25,0.00,0,,164
2014-3-18,63,51,38,36,33,25,76,56,36,29.63,29.51,29.44,10,10,10,28,14,36,0.00,2,,193
2014-3-19,53,44,34,33,26,20,82,55,28,30.14,30.01,29.66,10,9,6,26,12,35,T,4,,313
2014-3-20,69,51,33,29,25,23,69,43,17,30.12,29.98,29.83,10,10,10,26,10,36,0.00,0,,218
2014-3-21,64,53,41,32,29,23,53,40,26,30.12,29.87,29.76,10,10,10,29,12,34,0.00,0,,269
2014-3-22,46,37,27,28,15,6,69,46,22,30.44,30.28,30.15,10,10,10,28,16,34,T,2,,10
2014-3-23,41,32,23,22,15,8,88,57,25,30.55,30.45,30.33,10,7,1,20,8,23,T,3,Snow,26
2014-3-24,38,33,27,31,22,10,92,66,40,30.33,30.25,30.19,10,5,0,10,5,16,0.07,6,Fog-Snow,19
2014-3-25,41,33,25,27,15,6,92,59,25,30.42,30.32,30.26,10,9,4,24,9,31,0.00,1,,320
2014-3-26,57,41,25,39,26,12,100,65,30,30.24,29.99,29.73,10,8,3,30,18,42,0.17,4,Rain,168
2014-3-27,71,54,37,55,43,29,93,70,47,29.83,29.55,29.36,10,9,6,31,21,42,0.10,6,Rain-Thunderstorm,214
2014-3-28,50,42,34,34,31,28,85,71,56,30.17,30.00,29.84,10,9,6,17,6,22,0.00,5,,7
2014-3-29,56,44,31,33,30,27,96,66,35,30.32,30.24,30.18,10,9,5,14,7,20,0.00,0,,5
2014-3-30,71,55,38,37,32,30,76,50,24,30.20,30.00,29.81,10,9,6,29,15,38,0.00,0,,177
2014-3-31,76,56,35,47,37,19,53,37,20,29.99,29.70,29.57,10,10,10,31,20,43,0.00,0,Thunderstorm,210